createdAt,value
2018-09-17T00:02:27.022Z,101334.34
2018-09-17T00:04:57.480Z,101331.35
2018-09-17T00:07:27.856Z,101329.50
2018-09-17T00:09:58.412Z,101321.02
2018-09-17T00:12:28.688Z,101322.31
2018-09-17T00:14:59.169Z,101324.77
2018-09-17T00:17:29.605Z,101333.09
2018-09-17T00:20:00.114Z,101337.55
2018-09-17T00:22:30.378Z,101343.05
2018-09-17T00:25:00.683Z,101345.17
2018-09-17T00:27:30.919Z,101347.69
2018-09-17T00:30:01.377Z,101341.18
2018-09-17T00:32:31.612Z,101339.13
2018-09-17T00:35:02.006Z,101334.98
2018-09-17T00:37:32.385Z,101332.49
2018-09-17T00:40:02.871Z,101327.59
2018-09-17T00:42:33.048Z,101334.62
2018-09-17T00:45:03.419Z,101337.45
2018-09-17T00:47:33.868Z,101339.41
2018-09-17T00:50:04.459Z,101338.77
2018-09-17T00:52:34.952Z,101339.75
2018-09-17T00:55:05.327Z,101333.47
2018-09-17T00:57:35.766Z,101330.16
2018-09-17T01:00:06.205Z,101324.66
2018-09-17T01:02:36.776Z,101329.62
2018-09-17T01:05:07.471Z,101331.97
2018-09-17T01:07:37.844Z,101329.70
2018-09-17T01:10:08.297Z,101332.31
2018-09-17T01:12:38.602Z,101329.86
2018-09-17T01:15:08.979Z,101324.23
2018-09-17T01:17:39.343Z,101318.30
2018-09-17T01:20:10.052Z,101323.11
2018-09-17T01:22:40.270Z,101323.77
2018-09-17T01:25:10.723Z,101324.95
2018-09-17T01:27:41.179Z,101329.75
2018-09-17T01:30:12.168Z,101333.77
2018-09-17T01:32:43.518Z,101339.17
2018-09-17T01:35:14.034Z,101335.78
2018-09-17T01:37:44.592Z,101332.42
2018-09-17T01:40:14.907Z,101331.44
2018-09-17T01:42:45.487Z,101332.08
2018-09-17T01:45:15.908Z,101332.16
2018-09-17T01:47:46.241Z,101330.99
2018-09-17T01:50:16.563Z,101337.16
2018-09-17T01:52:47.045Z,101339.43
2018-09-17T01:55:17.455Z,101338.77
2018-09-17T01:57:48.049Z,101335.53
2018-09-17T02:00:18.525Z,101333.27
2018-09-17T02:02:48.844Z,101330.78
2018-09-17T02:05:19.203Z,101328.19
2018-09-17T02:07:49.568Z,101332.61
2018-09-17T02:10:19.985Z,101329.55
2018-09-17T02:12:50.252Z,101325.45
2018-09-17T02:15:20.438Z,101318.90
2018-09-17T02:17:50.762Z,101314.30
2018-09-17T02:20:21.236Z,101320.91
2018-09-17T02:22:51.668Z,101319.21
2018-09-17T02:25:22.116Z,101319.61
2018-09-17T02:27:52.720Z,101321.54
2018-09-17T02:30:23.116Z,101316.72
2018-09-17T02:32:54.271Z,101306.99
2018-09-17T02:35:24.608Z,101309.83
2018-09-17T02:37:55.132Z,101310.09
2018-09-17T02:40:25.428Z,101310.02
2018-09-17T02:42:55.948Z,101310.25
2018-09-17T02:45:26.403Z,101311.09
2018-09-17T02:47:56.858Z,101316.22
2018-09-17T02:50:27.157Z,101312.45
2018-09-17T02:52:57.650Z,101305.99
2018-09-17T02:55:28.044Z,101297.94
2018-09-17T02:57:58.495Z,101297.41
2018-09-17T03:00:28.839Z,101295.91
2018-09-17T03:02:59.215Z,101295.50
2018-09-17T03:05:29.626Z,101292.64
2018-09-17T03:08:00.109Z,101301.58
2018-09-17T03:10:30.696Z,101291.20
2018-09-17T03:13:01.173Z,101304.80
2018-09-17T03:15:48.944Z,101300.62
2018-09-17T03:18:36.823Z,101309.83
2018-09-17T03:21:08.195Z,101313.66
2018-09-17T03:23:39.148Z,101306.50
2018-09-17T03:26:09.660Z,101310.52
2018-09-17T03:28:39.970Z,101311.75
2018-09-17T03:31:10.557Z,101316.99
2018-09-17T03:33:41.102Z,101329.97
2018-09-17T03:36:11.506Z,101332.04
2018-09-17T03:38:49.498Z,101335.47
2018-09-17T03:41:20.702Z,101336.28
2018-09-17T03:43:52.475Z,101340.02
2018-09-17T03:46:22.861Z,101335.78
2018-09-17T03:48:53.433Z,101329.86
2018-09-17T03:51:23.840Z,101332.45
2018-09-17T03:53:54.315Z,101331.16
2018-09-17T03:56:24.548Z,101321.39
2018-09-17T03:58:54.974Z,101324.80
2018-09-17T04:01:25.304Z,101322.80
2018-09-17T04:03:55.751Z,101315.37
2018-09-17T04:06:26.257Z,101322.95
2018-09-17T04:08:56.823Z,101321.09
2018-09-17T04:11:27.530Z,101321.31
2018-09-17T04:13:58.251Z,101325.48
2018-09-17T04:16:28.506Z,101320.50
2018-09-17T04:19:00.448Z,101320.00
2018-09-17T04:21:30.887Z,101313.11
2018-09-17T04:24:01.162Z,101322.39
2018-09-17T04:26:31.369Z,101326.22
2018-09-17T04:29:01.888Z,101314.20
2018-09-17T04:31:32.257Z,101317.55
2018-09-17T04:34:02.735Z,101309.98
2018-09-17T04:36:33.171Z,101315.35
2018-09-17T04:39:04.323Z,101313.59
2018-09-17T04:41:35.590Z,101312.02
2018-09-17T04:44:06.004Z,101318.34
2018-09-17T04:46:36.408Z,101310.99
2018-09-17T04:49:07.079Z,101310.23
2018-09-17T04:51:37.495Z,101318.01
2018-09-17T04:54:07.980Z,101316.59
2018-09-17T04:56:38.590Z,101315.84
2018-09-17T04:59:09.041Z,101310.31
2018-09-17T05:01:39.438Z,101306.81
2018-09-17T05:04:09.849Z,101310.86
2018-09-17T05:06:40.277Z,101309.41
2018-09-17T05:09:10.908Z,101319.73
2018-09-17T05:11:41.136Z,101320.67
2018-09-17T05:14:11.502Z,101324.97
2018-09-17T05:16:41.869Z,101329.83
2018-09-17T05:19:12.265Z,101334.39
2018-09-17T05:21:43.572Z,101335.45
2018-09-17T05:24:14.162Z,101333.89
2018-09-17T05:26:45.078Z,101335.01
2018-09-17T05:29:15.376Z,101330.14
2018-09-17T05:31:45.716Z,101322.11
2018-09-17T05:34:15.947Z,101319.55
2018-09-17T05:36:46.364Z,101314.41
2018-09-17T05:39:17.011Z,101318.91
2018-09-17T05:41:47.409Z,101316.88
2018-09-17T05:44:18.114Z,101318.59
2018-09-17T05:46:48.604Z,101321.42
2018-09-17T05:49:19.064Z,101322.70
2018-09-17T05:51:49.382Z,101319.71
2018-09-17T05:54:19.659Z,101319.05
2018-09-17T05:56:50.156Z,101327.81
2018-09-17T05:59:20.479Z,101330.75
2018-09-17T06:01:51.459Z,101338.34
2018-09-17T06:04:21.943Z,101328.94
2018-09-17T06:06:52.474Z,101340.06
2018-09-17T06:09:22.681Z,101343.48
2018-09-17T06:11:53.031Z,101352.88
2018-09-17T06:14:23.497Z,101361.84
2018-09-17T06:16:54.002Z,101369.08
2018-09-17T06:19:24.406Z,101372.71
2018-09-17T06:21:54.728Z,101374.48
2018-09-17T06:24:25.092Z,101368.32
2018-09-17T06:26:55.392Z,101366.61
2018-09-17T06:29:25.641Z,101366.80
2018-09-17T06:31:56.115Z,101366.66
2018-09-17T06:34:26.720Z,101365.23
2018-09-17T06:39:27.912Z,101366.63
2018-09-17T06:41:58.418Z,101367.05
2018-09-17T06:44:28.740Z,101372.55
2018-09-17T06:46:59.219Z,101373.27
2018-09-17T06:49:29.715Z,101376.91
2018-09-17T06:52:00.220Z,101378.77
2018-09-17T06:54:30.686Z,101379.69
2018-09-17T06:57:01.868Z,101378.63
2018-09-17T06:59:32.342Z,101393.52
2018-09-17T07:02:03.109Z,101389.18
2018-09-17T07:04:33.700Z,101390.84
2018-09-17T07:07:04.161Z,101393.02
2018-09-17T07:09:34.483Z,101397.11
2018-09-17T07:12:04.873Z,101401.03
2018-09-17T07:14:35.163Z,101397.94
2018-09-17T07:17:05.761Z,101402.08
2018-09-17T07:19:36.117Z,101400.39
2018-09-17T07:22:06.480Z,101403.98
2018-09-17T07:24:36.903Z,101402.25
2018-09-17T07:27:07.436Z,101405.44
2018-09-17T07:29:37.863Z,101402.48
2018-09-17T07:32:08.316Z,101405.36
2018-09-17T07:34:38.676Z,101406.67
2018-09-17T07:37:09.286Z,101411.82
2018-09-17T07:39:39.729Z,101404.47
2018-09-17T07:42:09.951Z,101403.64
2018-09-17T07:44:40.317Z,101413.22
2018-09-17T07:47:10.836Z,101414.14
2018-09-17T07:49:41.188Z,101413.46
2018-09-17T07:52:11.692Z,101415.06
2018-09-17T07:54:42.107Z,101405.31
2018-09-17T07:57:12.419Z,101404.45
2018-09-17T07:59:42.796Z,101409.56
2018-09-17T08:02:13.187Z,101402.42
2018-09-17T08:04:43.569Z,101410.44
2018-09-17T08:07:13.916Z,101405.88
2018-09-17T08:09:44.405Z,101409.72
2018-09-17T08:12:14.793Z,101401.97
2018-09-17T08:14:45.216Z,101395.86
2018-09-17T08:17:15.788Z,101398.86
2018-09-17T08:19:46.226Z,101406.53
2018-09-17T08:22:16.412Z,101403.52
2018-09-17T08:24:46.809Z,101405.23
2018-09-17T08:27:17.265Z,101405.02
2018-09-17T08:29:47.675Z,101401.27
2018-09-17T08:32:18.691Z,101394.64
2018-09-17T08:34:49.047Z,101392.99
2018-09-17T08:37:19.313Z,101392.38
2018-09-17T08:39:49.765Z,101393.14
2018-09-17T08:42:20.259Z,101394.06
2018-09-17T08:44:50.800Z,101393.18
2018-09-17T08:47:21.255Z,101388.08
2018-09-17T08:49:51.679Z,101392.84
2018-09-17T08:52:21.893Z,101389.16
2018-09-17T08:54:57.479Z,101395.27
2018-09-17T08:57:32.729Z,101388.66
2018-09-17T09:00:07.953Z,101392.75
2018-09-17T09:02:43.212Z,101394.38
2018-09-17T09:05:18.949Z,101391.36
2018-09-17T09:07:52.841Z,101385.50
2018-09-17T09:10:28.869Z,101382.39
2018-09-17T09:13:04.348Z,101380.91
2018-09-17T09:15:39.680Z,101377.61
2018-09-17T09:18:10.597Z,101378.27
2018-09-17T09:20:40.868Z,101378.79
2018-09-17T09:23:11.185Z,101377.06
2018-09-17T09:25:41.689Z,101379.63
2018-09-17T09:28:12.152Z,101379.52
2018-09-17T09:30:42.657Z,101379.48
2018-09-17T09:33:13.139Z,101373.70
2018-09-17T09:35:43.600Z,101369.83
2018-09-17T09:38:13.999Z,101364.61
2018-09-17T09:40:44.456Z,101359.85
2018-09-17T09:43:14.840Z,101356.33
2018-09-17T09:45:45.298Z,101356.83
2018-09-17T09:48:15.565Z,101359.99
2018-09-17T09:50:46.048Z,101364.83
2018-09-17T09:53:16.437Z,101364.04
2018-09-17T09:55:47.055Z,101359.92
2018-09-17T09:58:17.439Z,101357.23
2018-09-17T10:00:52.722Z,101357.87
2018-09-17T10:03:27.280Z,101355.73
2018-09-17T10:05:57.737Z,101354.34
2018-09-17T10:08:28.040Z,101351.66
2018-09-17T10:11:03.365Z,101351.47
2018-09-17T10:13:38.860Z,101346.97
2018-09-17T10:16:14.173Z,101345.03
2018-09-17T10:18:49.483Z,101337.45
2018-09-17T10:21:20.148Z,101340.21
2018-09-17T10:23:50.482Z,101336.81
2018-09-17T10:26:20.984Z,101328.61
2018-09-17T10:28:51.216Z,101328.33
2018-09-17T10:31:21.679Z,101331.23
2018-09-17T10:33:51.986Z,101329.97
2018-09-17T10:36:22.868Z,101331.26
2018-09-17T10:38:53.368Z,101333.80
2018-09-17T10:41:23.745Z,101331.30
2018-09-17T10:43:54.107Z,101329.23
2018-09-17T10:46:24.418Z,101327.53
2018-09-17T10:48:55.007Z,101327.52
2018-09-17T10:51:25.382Z,101324.08
2018-09-17T10:53:55.780Z,101315.09
2018-09-17T10:56:26.206Z,101308.77
2018-09-17T10:58:57.150Z,101310.11
2018-09-17T11:01:27.574Z,101303.45
2018-09-17T11:03:57.942Z,101312.44
2018-09-17T11:06:28.733Z,101307.77
2018-09-17T11:08:59.155Z,101310.09
2018-09-17T11:11:29.404Z,101307.23
2018-09-17T11:13:59.787Z,101298.92
2018-09-17T11:16:30.283Z,101302.77
2018-09-17T11:19:00.776Z,101303.61
2018-09-17T11:21:31.245Z,101296.62
2018-09-17T11:24:01.604Z,101289.94
2018-09-17T11:26:32.106Z,101287.81
2018-09-17T11:29:02.651Z,101289.92
2018-09-17T11:31:33.231Z,101285.64
2018-09-17T11:34:03.658Z,101279.48
2018-09-17T11:36:34.028Z,101268.64
2018-09-17T11:39:05.700Z,101267.48
2018-09-17T11:41:36.108Z,101271.67
2018-09-17T11:44:06.513Z,101272.83
2018-09-17T11:46:38.529Z,101273.01
2018-09-17T11:49:09.139Z,101271.16
2018-09-17T11:51:40.060Z,101270.16
2018-09-17T11:54:10.620Z,101271.31
2018-09-17T11:56:41.280Z,101267.44
2018-09-17T11:59:11.635Z,101270.94
2018-09-17T12:01:47.160Z,101261.77
2018-09-17T12:04:21.627Z,101266.83
2018-09-17T12:07:56.972Z,101263.49
2018-09-17T12:10:27.295Z,101264.27
2018-09-17T12:12:57.847Z,101262.95
2018-09-17T12:15:28.114Z,101257.75
2018-09-17T12:17:58.369Z,101257.77
2018-09-17T12:20:28.789Z,101251.59
2018-09-17T12:22:59.164Z,101253.41
2018-09-17T12:25:29.517Z,101256.09
2018-09-17T12:28:01.155Z,101251.04
2018-09-17T12:30:31.638Z,101244.02
2018-09-17T12:33:02.384Z,101242.80
2018-09-17T12:35:32.817Z,101238.76
2018-09-17T12:38:03.091Z,101237.07
2018-09-17T12:40:33.480Z,101235.59
2018-09-17T12:43:03.997Z,101233.42
2018-09-17T12:45:36.347Z,101228.14
2018-09-17T12:48:06.818Z,101224.16
2018-09-17T12:50:37.161Z,101217.17
2018-09-17T12:53:07.531Z,101216.17
2018-09-17T12:55:37.782Z,101216.77
2018-09-17T12:58:08.232Z,101215.81
2018-09-17T13:00:38.772Z,101219.66
2018-09-17T13:03:09.137Z,101209.22
2018-09-17T13:05:39.588Z,101202.20
2018-09-17T13:08:09.963Z,101200.81
2018-09-17T13:10:40.381Z,101201.45
2018-09-17T13:13:10.727Z,101199.56
2018-09-17T13:15:46.071Z,101200.16
2018-09-17T13:18:16.321Z,101200.23
2018-09-17T13:20:46.680Z,101192.95
2018-09-17T13:23:17.028Z,101195.72
2018-09-17T13:25:47.504Z,101200.39
2018-09-17T13:28:18.151Z,101193.80
2018-09-17T13:30:48.618Z,101195.52
2018-09-17T13:33:18.873Z,101194.13
2018-09-17T13:35:49.244Z,101194.50
2018-09-17T13:38:19.657Z,101190.84
2018-09-17T13:40:50.341Z,101191.74
2018-09-17T13:43:20.808Z,101185.14
2018-09-17T13:45:51.203Z,101178.68
2018-09-17T13:48:21.907Z,101186.03
2018-09-17T13:50:52.147Z,101183.47
2018-09-17T13:53:22.683Z,101186.48
2018-09-17T13:55:52.984Z,101178.81
2018-09-17T13:58:23.486Z,101175.85
2018-09-17T14:00:53.921Z,101174.77
2018-09-17T14:03:24.215Z,101173.22
2018-09-17T14:05:54.641Z,101180.19
2018-09-17T14:08:25.122Z,101180.23
2018-09-17T14:10:55.624Z,101171.86
2018-09-17T14:13:26.361Z,101168.77
2018-09-17T14:16:06.895Z,101169.58
2018-09-17T14:18:38.063Z,101166.20
2018-09-17T14:21:08.744Z,101166.72
2018-09-17T14:23:39.135Z,101162.60
2018-09-17T14:26:09.603Z,101150.62
2018-09-17T14:28:40.114Z,101154.95
2018-09-17T14:31:10.485Z,101152.27
2018-09-17T14:33:41.543Z,101148.41
2018-09-17T14:36:12.039Z,101146.80
2018-09-17T14:38:42.384Z,101144.44
2018-09-17T14:41:12.869Z,101150.58
2018-09-17T14:43:43.483Z,101136.43
2018-09-17T14:46:13.831Z,101139.98
2018-09-17T14:48:44.522Z,101144.30
2018-09-17T14:51:14.988Z,101135.45
2018-09-17T14:53:45.331Z,101135.36
2018-09-17T14:56:15.779Z,101128.37
2018-09-17T14:58:46.395Z,101130.05
2018-09-17T15:01:17.109Z,101125.72
2018-09-17T15:03:47.452Z,101124.41
2018-09-17T15:06:17.830Z,101127.24
2018-09-17T15:08:48.288Z,101122.09
2018-09-17T15:11:18.818Z,101121.09
2018-09-17T15:13:49.372Z,101113.12
2018-09-17T15:16:20.123Z,101116.32
2018-09-17T15:18:50.548Z,101112.78
2018-09-17T15:21:20.980Z,101115.13
2018-09-17T15:23:51.327Z,101110.98
2018-09-17T15:26:22.044Z,101110.83
2018-09-17T15:28:52.435Z,101103.33
2018-09-17T15:31:23.031Z,101104.36
2018-09-17T15:33:53.404Z,101097.87
2018-09-17T15:36:23.934Z,101099.20
2018-09-17T15:38:54.424Z,101102.03
2018-09-17T15:41:25.085Z,101104.70
2018-09-17T15:43:55.276Z,101108.86
2018-09-17T15:46:25.783Z,101106.88
2018-09-17T15:48:56.155Z,101101.22
2018-09-17T15:51:26.560Z,101104.33
2018-09-17T15:53:56.943Z,101102.17
2018-09-17T15:56:27.235Z,101094.53
2018-09-17T15:58:57.659Z,101095.85
2018-09-17T16:01:28.138Z,101095.84
2018-09-17T16:03:59.307Z,101092.99
2018-09-17T16:06:29.772Z,101098.44
2018-09-17T16:09:00.332Z,101093.88
2018-09-17T16:11:31.023Z,101094.53
2018-09-17T16:14:01.344Z,101087.19
2018-09-17T16:16:31.899Z,101082.66
2018-09-17T16:19:02.036Z,101087.63
2018-09-17T16:21:32.794Z,101082.59
2018-09-17T16:24:03.233Z,101083.38
2018-09-17T16:26:33.537Z,101082.98
2018-09-17T16:29:04.156Z,101081.92
2018-09-17T16:31:34.521Z,101082.52
2018-09-17T16:34:04.977Z,101081.29
2018-09-17T16:36:35.400Z,101082.53
2018-09-17T16:39:08.057Z,101081.77
2018-09-17T16:41:38.699Z,101085.84
2018-09-17T16:44:09.272Z,101077.59
2018-09-17T16:46:40.029Z,101082.44
2018-09-17T16:49:10.649Z,101085.59
2018-09-17T16:51:41.140Z,101083.80
2018-09-17T16:54:11.616Z,101080.97
2018-09-17T16:56:41.953Z,101088.56
2018-09-17T16:59:12.486Z,101088.53
2018-09-17T17:01:42.792Z,101083.73
2018-09-17T17:04:13.162Z,101087.04
2018-09-17T17:06:43.634Z,101088.37
2018-09-17T17:09:13.871Z,101097.44
2018-09-17T17:11:44.140Z,101095.89
2018-09-17T17:14:14.495Z,101088.81
2018-09-17T17:16:45.117Z,101087.22
2018-09-17T17:19:15.595Z,101087.97
2018-09-17T17:21:46.059Z,101096.41
2018-09-17T17:24:16.573Z,101096.30
2018-09-17T17:26:46.967Z,101103.51
2018-09-17T17:29:17.573Z,101108.56
2018-09-17T17:31:47.888Z,101108.67
2018-09-17T17:34:18.294Z,101109.86
2018-09-17T17:36:48.816Z,101112.09
2018-09-17T17:39:19.410Z,101111.33
2018-09-17T17:41:49.663Z,101119.52
2018-09-17T17:44:20.238Z,101109.41
2018-09-17T17:46:50.846Z,101107.17
2018-09-17T17:49:21.364Z,101114.16
2018-09-17T17:51:51.970Z,101109.58
2018-09-17T17:54:22.478Z,101112.36
2018-09-17T17:56:52.792Z,101113.73
2018-09-17T17:59:23.271Z,101115.91
2018-09-17T18:01:53.791Z,101114.60
2018-09-17T18:04:24.288Z,101112.83
2018-09-17T18:06:54.623Z,101112.37
2018-09-17T18:09:25.168Z,101114.41
2018-09-17T18:11:55.603Z,101113.23
2018-09-17T18:14:26.176Z,101113.48
2018-09-17T18:16:56.552Z,101115.85
2018-09-17T18:19:26.937Z,101116.59
2018-09-17T18:21:57.431Z,101112.48
2018-09-17T18:24:28.296Z,101114.50
2018-09-17T18:26:58.854Z,101109.11
2018-09-17T18:29:29.323Z,101105.00
2018-09-17T18:31:59.957Z,101105.85
2018-09-17T18:34:30.448Z,101105.60
2018-09-17T18:37:00.769Z,101102.98
2018-09-17T18:39:31.244Z,101099.27
2018-09-17T18:42:01.608Z,101098.77
2018-09-17T18:44:32.113Z,101096.58
2018-09-17T18:47:02.809Z,101099.31
2018-09-17T18:49:33.293Z,101092.73
2018-09-17T18:52:03.857Z,101097.71
2018-09-17T18:54:34.375Z,101099.00
2018-09-17T18:57:04.742Z,101094.30
2018-09-17T18:59:35.580Z,101091.37
2018-09-17T19:02:06.112Z,101091.77
2018-09-17T19:04:36.588Z,101087.41
2018-09-17T19:07:07.511Z,101085.58
2018-09-17T19:09:50.228Z,101090.34
2018-09-17T19:12:21.551Z,101092.30
2018-09-17T19:14:56.887Z,101089.31
2018-09-17T19:17:32.635Z,101090.33
2018-09-17T19:20:03.231Z,101091.23
2018-09-17T19:22:38.889Z,101088.30
2018-09-17T19:25:10.848Z,101094.66
2018-09-17T19:27:46.291Z,101096.16
2018-09-17T19:30:17.011Z,101089.45
2018-09-17T19:32:47.235Z,101089.19
2018-09-17T19:35:17.707Z,101085.02
2018-09-17T19:37:53.252Z,101087.53
2018-09-17T19:40:23.596Z,101087.99
2018-09-17T19:42:53.995Z,101089.52
2018-09-17T19:45:29.536Z,101089.90
2018-09-17T19:48:00.022Z,101087.28
2018-09-17T19:50:35.775Z,101089.66
2018-09-17T19:53:06.300Z,101084.18
2018-09-17T19:55:36.746Z,101088.29
2018-09-17T19:58:12.280Z,101075.57
2018-09-17T20:00:42.799Z,101076.50
2018-09-17T20:03:13.328Z,101072.62
2018-09-17T20:05:48.823Z,101076.66
2018-09-17T20:08:19.420Z,101073.54
2018-09-17T20:10:50.116Z,101072.79
2018-09-17T20:13:20.445Z,101072.95
2018-09-17T20:15:50.759Z,101076.77
2018-09-17T20:18:21.134Z,101076.07
2018-09-17T20:20:51.621Z,101077.54
2018-09-17T20:23:22.871Z,101071.66
2018-09-17T20:25:53.187Z,101073.28
2018-09-17T20:28:23.570Z,101077.77
2018-09-17T20:30:54.592Z,101079.88
2018-09-17T20:33:30.418Z,101083.32
2018-09-17T20:36:01.113Z,101081.14
2018-09-17T20:38:31.521Z,101078.90
2018-09-17T20:41:01.842Z,101075.73
2018-09-17T20:43:32.116Z,101070.72
2018-09-17T20:46:02.621Z,101064.34
2018-09-17T20:48:33.019Z,101064.89
2018-09-17T20:51:03.477Z,101058.45
2018-09-17T20:53:33.976Z,101051.64
2018-09-17T20:56:04.318Z,101056.16
2018-09-17T20:58:34.655Z,101047.97
2018-09-17T21:01:05.230Z,101057.23
2018-09-17T21:03:35.453Z,101050.93
2018-09-17T21:06:05.899Z,101053.33
2018-09-17T21:08:36.144Z,101049.94
2018-09-17T21:11:06.324Z,101048.69
2018-09-17T21:13:36.722Z,101048.47
2018-09-17T21:16:07.217Z,101044.77
2018-09-17T21:18:37.795Z,101046.49
2018-09-17T21:21:08.194Z,101048.95
2018-09-17T21:23:38.529Z,101043.16
2018-09-17T21:26:09.220Z,101043.93
2018-09-17T21:28:39.697Z,101049.16
2018-09-17T21:31:10.143Z,101051.23
2018-09-17T21:33:40.647Z,101054.05
2018-09-17T21:36:11.163Z,101048.93
2018-09-17T21:38:41.371Z,101048.96
2018-09-17T21:41:11.904Z,101047.09
2018-09-17T21:43:42.354Z,101046.27
2018-09-17T21:46:12.790Z,101044.41
2018-09-17T21:48:43.162Z,101035.08
2018-09-17T21:51:13.628Z,101036.59
2018-09-17T21:53:44.238Z,101033.08
2018-09-17T21:56:14.787Z,101030.63
2018-09-17T21:58:45.801Z,101028.70
2018-09-17T22:01:20.444Z,101026.94
2018-09-17T22:03:51.432Z,101029.81
2018-09-17T22:06:21.949Z,101032.06
2018-09-17T22:08:52.483Z,101024.91
2018-09-17T22:11:23.152Z,101017.99
2018-09-17T22:13:53.601Z,101020.23
2018-09-17T22:16:24.267Z,101016.14
2018-09-17T22:18:54.711Z,101022.10
2018-09-17T22:21:25.188Z,101024.53
2018-09-17T22:23:55.775Z,101022.59
2018-09-17T22:26:26.228Z,101026.51
2018-09-17T22:28:56.628Z,101018.48
2018-09-17T22:31:27.520Z,101013.70
2018-09-17T22:33:57.939Z,101013.52
2018-09-17T22:36:28.398Z,101009.25
2018-09-17T22:38:59.061Z,101011.48
2018-09-17T22:41:29.484Z,101003.09
2018-09-17T22:43:59.806Z,101004.39
2018-09-17T22:46:30.082Z,101004.20
2018-09-17T22:49:02.211Z,100993.19
2018-09-17T22:51:32.719Z,101001.97
2018-09-17T22:54:03.153Z,100997.08
2018-09-17T22:56:33.625Z,100995.34
2018-09-17T22:59:04.363Z,100995.89
2018-09-17T23:01:34.788Z,100994.46
2018-09-17T23:04:05.293Z,100993.45
2018-09-17T23:06:35.605Z,100994.08
2018-09-17T23:09:08.780Z,100988.03
2018-09-17T23:11:39.292Z,100993.52
2018-09-17T23:14:09.536Z,100998.45
2018-09-17T23:16:40.448Z,100997.72
2018-09-17T23:19:10.976Z,101002.11
2018-09-17T23:21:41.463Z,101003.22
2018-09-17T23:24:11.873Z,100998.92
2018-09-17T23:26:42.387Z,101004.52
2018-09-17T23:29:12.759Z,101000.42
2018-09-17T23:31:43.064Z,100998.64
2018-09-17T23:34:13.820Z,100997.87
2018-09-17T23:36:44.276Z,100994.81
2018-09-17T23:39:14.743Z,100999.45
2018-09-17T23:41:45.149Z,100997.42
2018-09-17T23:44:15.403Z,100999.34
2018-09-17T23:46:45.904Z,100992.63
2018-09-17T23:49:16.271Z,100999.78
2018-09-17T23:51:46.639Z,100996.34
2018-09-17T23:54:16.943Z,100995.16
2018-09-17T23:56:47.367Z,100989.64
2018-09-17T23:59:17.924Z,100983.51
